sensor_id;sensor_type;location;lat;lon;timestamp;pressure;altitude;pressure_sealevel;temperature;humidity
61674;BME280;47573;43.832;5.974;2022-08-21T00:04:43;95031.03;;;28.37;48.75
61674;BME280;47573;43.832;5.974;2022-08-21T00:09:46;95024.16;;;28.34;48.87
61674;BME280;47573;43.832;5.974;2022-08-21T00:14:47;95017.53;;;28.40;48.66
61674;BME280;47573;43.832;5.974;2022-08-21T00:19:48;95023.63;;;28.37;48.76
61674;BME280;47573;43.832;5.974;2022-08-21T00:24:49;95018.69;;;28.34;48.70
61674;BME280;47573;43.832;5.974;2022-08-21T00:29:50;95022.78;;;28.37;48.81
61674;BME280;47573;43.832;5.974;2022-08-21T00:34:52;95026.38;;;28.32;48.74
61674;BME280;47573;43.832;5.974;2022-08-21T00:39:55;95031.31;;;28.35;48.76
61674;BME280;47573;43.832;5.974;2022-08-21T00:44:56;95031.31;;;28.35;48.83
61674;BME280;47573;43.832;5.974;2022-08-21T00:49:56;95026.38;;;28.32;48.67
61674;BME280;47573;43.832;5.974;2022-08-21T00:54:59;95023.94;;;28.26;48.94
61674;BME280;47573;43.832;5.974;2022-08-21T01:00:04;95009.41;;;28.25;49.07
61674;BME280;47573;43.832;5.974;2022-08-21T01:05:06;95000.56;;;28.33;49.00
61674;BME280;47573;43.832;5.974;2022-08-21T01:10:09;94995.16;;;28.23;49.20
61674;BME280;47573;43.832;5.974;2022-08-21T01:15:11;94987.44;;;28.25;48.83
61674;BME280;47573;43.832;5.974;2022-08-21T01:20:13;94993.47;;;28.27;49.00
61674;BME280;47573;43.832;5.974;2022-08-21T01:25:16;94996.22;;;28.27;48.94
61674;BME280;47573;43.832;5.974;2022-08-21T01:30:21;94992.94;;;28.25;48.97
61674;BME280;47573;43.832;5.974;2022-08-21T01:35:22;95006.13;;;28.23;48.93
61674;BME280;47573;43.832;5.974;2022-08-21T01:40:25;94991.28;;;28.24;48.91
61674;BME280;47573;43.832;5.974;2022-08-21T01:45:26;94985.50;;;28.26;49.04
61674;BME280;47573;43.832;5.974;2022-08-21T01:50:26;94985.25;;;28.27;48.99
61674;BME280;47573;43.832;5.974;2022-08-21T01:55:28;94977.56;;;28.24;48.93
61674;BME280;47573;43.832;5.974;2022-08-21T02:00:29;94969.31;;;28.29;49.12
61674;BME280;47573;43.832;5.974;2022-08-21T02:05:29;94980.91;;;28.21;49.18
61674;BME280;47573;43.832;5.974;2022-08-21T02:10:32;94981.44;;;28.18;48.90
61674;BME280;47573;43.832;5.974;2022-08-21T02:15:33;94978.69;;;28.23;48.80
61674;BME280;47573;43.832;5.974;2022-08-21T02:20:35;94976.78;;;28.19;48.93
61674;BME280;47573;43.832;5.974;2022-08-21T02:25:38;94969.91;;;28.21;48.79
61674;BME280;47573;43.832;5.974;2022-08-21T02:30:41;94971.28;;;28.19;48.93
61674;BME280;47573;43.832;5.974;2022-08-21T02:35:43;94966.03;;;28.22;48.59
61674;BME280;47573;43.832;5.974;2022-08-21T02:40:48;94961.94;;;28.20;48.93
61674;BME280;47573;43.832;5.974;2022-08-21T02:45:50;94959.47;;;28.18;48.71
61674;BME280;47573;43.832;5.974;2022-08-21T02:50:53;94955.13;;;28.12;48.85
61674;BME280;47573;43.832;5.974;2022-08-21T02:55:57;94931.28;;;28.08;49.06
61674;BME280;47573;43.832;5.974;2022-08-21T03:00:58;94921.94;;;28.09;48.97
61674;BME280;47573;43.832;5.974;2022-08-21T03:05:58;94921.13;;;28.08;49.00
61674;BME280;47573;43.832;5.974;2022-08-21T03:11:00;94927.63;;;28.17;48.80
61674;BME280;47573;43.832;5.974;2022-08-21T03:16:01;94942.50;;;28.11;48.89
61674;BME280;47573;43.832;5.974;2022-08-21T03:21:03;94948.56;;;28.08;48.99
61674;BME280;47573;43.832;5.974;2022-08-21T03:26:05;94943.09;;;28.08;48.75
61674;BME280;47573;43.832;5.974;2022-08-21T03:31:06;94935.41;;;28.05;48.97
61674;BME280;47573;43.832;5.974;2022-08-21T03:36:07;94934.88;;;28.03;48.98
61674;BME280;47573;43.832;5.974;2022-08-21T03:41:09;94934.63;;;28.00;49.02
61674;BME280;47573;43.832;5.974;2022-08-21T03:46:10;94923.09;;;28.03;48.89
61674;BME280;47573;43.832;5.974;2022-08-21T03:51:11;94913.50;;;28.00;48.91
61674;BME280;47573;43.832;5.974;2022-08-21T03:56:12;94917.38;;;27.89;49.25
61674;BME280;47573;43.832;5.974;2022-08-21T04:01:13;94920.88;;;27.95;48.85
61674;BME280;47573;43.832;5.974;2022-08-21T04:06:13;94921.16;;;28.03;48.84
61674;BME280;47573;43.832;5.974;2022-08-21T04:11:15;94911.84;;;27.99;48.70
61674;BME280;47573;43.832;5.974;2022-08-21T04:16:16;94923.41;;;27.96;48.89
61674;BME280;47573;43.832;5.974;2022-08-21T04:21:16;94916.81;;;27.92;48.83
61674;BME280;47573;43.832;5.974;2022-08-21T04:26:18;94907.75;;;27.92;48.99
61674;BME280;47573;43.832;5.974;2022-08-21T04:31:19;94911.31;;;27.92;48.89
61674;BME280;47573;43.832;5.974;2022-08-21T04:36:19;94921.16;;;28.03;48.54
61674;BME280;47573;43.832;5.974;2022-08-21T04:41:21;94925.06;;;27.87;48.94
61674;BME280;47573;43.832;5.974;2022-08-21T04:46:22;94924.78;;;27.88;49.04
61674;BME280;47573;43.832;5.974;2022-08-21T04:51:24;94919.94;;;26.86;49.55
61674;BME280;47573;43.832;5.974;2022-08-21T04:56:30;94940.41;;;25.88;51.81
61674;BME280;47573;43.832;5.974;2022-08-21T05:01:33;94949.84;;;25.56;52.65
61674;BME280;47573;43.832;5.974;2022-08-21T05:06:36;94962.47;;;25.62;52.65
61674;BME280;47573;43.832;5.974;2022-08-21T05:11:39;94964.50;;;25.29;53.39
61674;BME280;47573;43.832;5.974;2022-08-21T05:16:39;94962.00;;;25.23;53.48
61674;BME280;47573;43.832;5.974;2022-08-21T05:21:42;94951.09;;;24.81;54.62
61674;BME280;47573;43.832;5.974;2022-08-21T05:26:44;94960.91;;;24.77;55.20
61674;BME280;47573;43.832;5.974;2022-08-21T05:31:45;94961.72;;;24.78;55.42
61674;BME280;47573;43.832;5.974;2022-08-21T05:36:46;94980.78;;;25.09;55.12
61674;BME280;47573;43.832;5.974;2022-08-21T05:41:47;94991.03;;;24.92;56.19
61674;BME280;47573;43.832;5.974;2022-08-21T05:46:48;94991.16;;;25.12;55.80
61674;BME280;47573;43.832;5.974;2022-08-21T05:51:48;94986.75;;;25.06;56.34
61674;BME280;47573;43.832;5.974;2022-08-21T05:56:51;94988.53;;;25.27;55.59
61674;BME280;47573;43.832;5.974;2022-08-21T06:01:52;94996.06;;;25.05;56.07
61674;BME280;47573;43.832;5.974;2022-08-21T06:06:52;95013.56;;;25.09;55.98
61674;BME280;47573;43.832;5.974;2022-08-21T06:11:54;95010.81;;;25.51;54.88
61674;BME280;47573;43.832;5.974;2022-08-21T06:17:01;95008.16;;;25.19;55.75
61674;BME280;47573;43.832;5.974;2022-08-21T06:22:02;95019.91;;;25.20;55.84
61674;BME280;47573;43.832;5.974;2022-08-21T06:27:05;95005.06;;;25.47;55.79
61674;BME280;47573;43.832;5.974;2022-08-21T06:32:06;95010.09;;;25.81;54.72
61674;BME280;47573;43.832;5.974;2022-08-21T06:37:10;95012.88;;;25.86;54.32
61674;BME280;47573;43.832;5.974;2022-08-21T06:42:14;94999.19;;;25.91;54.70
61674;BME280;47573;43.832;5.974;2022-08-21T06:47:15;95002.59;;;26.13;53.92
61674;BME280;47573;43.832;5.974;2022-08-21T06:52:16;95010.03;;;26.38;53.23
61674;BME280;47573;43.832;5.974;2022-08-21T06:57:17;95002.63;;;26.53;52.90
61674;BME280;47573;43.832;5.974;2022-08-21T07:02:18;95010.84;;;26.48;52.75
61674;BME280;47573;43.832;5.974;2022-08-21T07:07:18;95005.38;;;26.58;52.46
61674;BME280;47573;43.832;5.974;2022-08-21T07:12:20;94998.84;;;26.74;51.96
61674;BME280;47573;43.832;5.974;2022-08-21T07:17:21;95006.50;;;26.87;51.33
61674;BME280;47573;43.832;5.974;2022-08-21T07:22:21;95000.47;;;26.95;51.51
61674;BME280;47573;43.832;5.974;2022-08-21T07:27:23;95007.84;;;27.15;51.10
61674;BME280;47573;43.832;5.974;2022-08-21T07:32:24;94988.91;;;27.39;50.78
61674;BME280;47573;43.832;5.974;2022-08-21T07:37:24;94982.88;;;27.42;50.41
61674;BME280;47573;43.832;5.974;2022-08-21T07:42:26;94986.94;;;27.54;49.85
61674;BME280;47573;43.832;5.974;2022-08-21T07:47:27;94978.38;;;27.66;50.05
61674;BME280;47573;43.832;5.974;2022-08-21T07:52:27;94985.03;;;27.55;50.44
61674;BME280;47573;43.832;5.974;2022-08-21T07:57:29;94985.47;;;27.77;49.40
61674;BME280;47573;43.832;5.974;2022-08-21T08:02:30;94979.41;;;27.85;49.21
61674;BME280;47573;43.832;5.974;2022-08-21T08:07:31;94987.63;;;27.85;49.33
61674;BME280;47573;43.832;5.974;2022-08-21T08:12:33;94972.25;;;27.84;49.29
61674;BME280;47573;43.832;5.974;2022-08-21T08:17:33;94971.13;;;27.95;49.24
61674;BME280;47573;43.832;5.974;2022-08-21T08:22:34;94968.38;;;28.00;49.42
61674;BME280;47573;43.832;5.974;2022-08-21T08:27:37;94965.34;;;28.02;49.59
61674;BME280;47573;43.832;5.974;2022-08-21T08:32:38;94963.97;;;28.04;49.52
61674;BME280;47573;43.832;5.974;2022-08-21T08:37:38;94957.41;;;28.00;48.79
61674;BME280;47573;43.832;5.974;2022-08-21T08:42:41;94945.78;;;28.13;49.04
61674;BME280;47573;43.832;5.974;2022-08-21T08:47:44;94949.72;;;27.97;49.52
61674;BME280;47573;43.832;5.974;2022-08-21T08:52:49;94946.28;;;28.20;48.95
61674;BME280;47573;43.832;5.974;2022-08-21T08:57:54;94944.66;;;28.19;48.96
61674;BME280;47573;43.832;5.974;2022-08-21T09:02:56;94939.72;;;28.16;48.90
61674;BME280;47573;43.832;5.974;2022-08-21T09:08:22;94935.06;;;28.17;48.68
61674;BME280;47573;43.832;5.974;2022-08-21T09:13:36;94936.44;;;28.19;48.46
61674;BME280;47573;43.832;5.974;2022-08-21T09:18:40;94939.66;;;28.26;48.22
61674;BME280;47573;43.832;5.974;2022-08-21T09:23:50;94933.59;;;28.29;48.12
61674;BME280;47573;43.832;5.974;2022-08-21T09:28:57;94921.22;;;28.32;48.24
61674;BME280;47573;43.832;5.974;2022-08-21T09:34:00;94922.44;;;28.49;47.53
61674;BME280;47573;43.832;5.974;2022-08-21T09:39:01;94913.13;;;28.50;47.35
61674;BME280;47573;43.832;5.974;2022-08-21T09:44:03;94920.81;;;28.48;47.69
61674;BME280;47573;43.832;5.974;2022-08-21T09:49:04;94916.47;;;28.42;47.66
61674;BME280;47573;43.832;5.974;2022-08-21T09:54:16;94907.31;;;28.57;47.51
61674;BME280;47573;43.832;5.974;2022-08-21T09:59:26;94915.22;;;28.63;47.27
61674;BME280;47573;43.832;5.974;2022-08-21T10:04:29;94912.72;;;28.67;46.99
61674;BME280;47573;43.832;5.974;2022-08-21T10:09:31;94915.75;;;28.66;47.19
61674;BME280;47573;43.832;5.974;2022-08-21T10:14:46;94912.16;;;28.65;47.17
61674;BME280;47573;43.832;5.974;2022-08-21T10:19:56;94909.91;;;28.72;46.76
61674;BME280;47573;43.832;5.974;2022-08-21T10:25:08;94902.94;;;28.85;46.45
61674;BME280;47573;43.832;5.974;2022-08-21T10:30:17;94895.81;;;28.84;46.34
61674;BME280;47573;43.832;5.974;2022-08-21T10:35:23;94891.38;;;28.88;46.30
61674;BME280;47573;43.832;5.974;2022-08-21T10:40:27;94890.44;;;28.97;46.24
61674;BME280;47573;43.832;5.974;2022-08-21T10:45:39;94878.03;;;29.00;46.46
61674;BME280;47573;43.832;5.974;2022-08-21T10:50:48;94882.38;;;29.06;46.27
61674;BME280;47573;43.832;5.974;2022-08-21T10:55:55;94885.41;;;29.04;46.54
61674;BME280;47573;43.832;5.974;2022-08-21T11:01:00;94868.31;;;29.07;46.56
61674;BME280;47573;43.832;5.974;2022-08-21T11:06:20;94869.97;;;29.08;46.51
61674;BME280;47573;43.832;5.974;2022-08-21T11:11:24;94860.81;;;29.18;46.49
61674;BME280;47573;43.832;5.974;2022-08-21T11:16:35;94854.78;;;29.16;46.18
61674;BME280;47573;43.832;5.974;2022-08-21T11:21:41;94845.88;;;29.24;46.34
61674;BME280;47573;43.832;5.974;2022-08-21T11:26:46;94849.13;;;29.31;45.95
61674;BME280;47573;43.832;5.974;2022-08-21T11:32:06;94844.72;;;29.30;46.29
61674;BME280;47573;43.832;5.974;2022-08-21T11:37:16;94846.59;;;29.34;46.05
61674;BME280;47573;43.832;5.974;2022-08-21T11:42:24;94839.47;;;29.33;45.86
61674;BME280;47573;43.832;5.974;2022-08-21T11:47:45;94839.53;;;29.47;45.53
61674;BME280;47573;43.832;5.974;2022-08-21T11:52:50;94838.34;;;29.53;45.17
61674;BME280;47573;43.832;5.974;2022-08-21T11:57:57;94825.72;;;29.52;45.22
61674;BME280;47573;43.832;5.974;2022-08-21T12:03:11;94829.59;;;29.51;45.29
61674;BME280;47573;43.832;5.974;2022-08-21T12:08:15;94811.06;;;29.57;45.25
61674;BME280;47573;43.832;5.974;2022-08-21T12:13:29;94815.63;;;29.66;44.78
61674;BME280;47573;43.832;5.974;2022-08-21T12:18:31;94810.56;;;29.73;44.88
61674;BME280;47573;43.832;5.974;2022-08-21T12:23:34;94804.31;;;29.68;44.46
61674;BME280;47573;43.832;5.974;2022-08-21T12:28:43;94807.06;;;29.68;44.65
61674;BME280;47573;43.832;5.974;2022-08-21T12:33:51;94798.50;;;29.69;45.01
61674;BME280;47573;43.832;5.974;2022-08-21T12:38:56;94799.81;;;29.77;44.67
61674;BME280;47573;43.832;5.974;2022-08-21T12:43:59;94800.47;;;29.87;44.54
61674;BME280;47573;43.832;5.974;2022-08-21T12:49:07;94788.44;;;29.83;44.43
61674;BME280;47573;43.832;5.974;2022-08-21T12:54:09;94789.38;;;29.92;44.25
61674;BME280;47573;43.832;5.974;2022-08-21T12:59:12;94782.75;;;29.93;43.91
61674;BME280;47573;43.832;5.974;2022-08-21T13:04:17;94783.97;;;29.87;44.27
61674;BME280;47573;43.832;5.974;2022-08-21T13:09:26;94782.81;;;29.88;44.29
61674;BME280;47573;43.832;5.974;2022-08-21T13:14:33;94770.53;;;29.99;43.93
61674;BME280;47573;43.832;5.974;2022-08-21T13:19:37;94776.56;;;30.01;43.94
61674;BME280;47573;43.832;5.974;2022-08-21T13:24:37;94774.41;;;29.98;43.73
61674;BME280;47573;43.832;5.974;2022-08-21T13:29:38;94786.03;;;29.95;43.69
61674;BME280;47573;43.832;5.974;2022-08-21T13:34:40;94771.66;;;29.98;43.58
61674;BME280;47573;43.832;5.974;2022-08-21T13:39:40;94775.44;;;30.02;43.58
61674;BME280;47573;43.832;5.974;2022-08-21T13:44:43;94768.50;;;30.05;43.44
61674;BME280;47573;43.832;5.974;2022-08-21T13:49:46;94768.91;;;29.98;43.50
61674;BME280;47573;43.832;5.974;2022-08-21T13:54:54;94770.09;;;29.92;44.19
61674;BME280;47573;43.832;5.974;2022-08-21T14:00:13;94759.16;;;30.06;43.48
61674;BME280;47573;43.832;5.974;2022-08-21T14:05:21;94763.19;;;29.95;43.99
61674;BME280;47573;43.832;5.974;2022-08-21T14:10:22;94745.56;;;29.96;44.05
61674;BME280;47573;43.832;5.974;2022-08-21T14:15:25;94745.84;;;29.94;44.42
61674;BME280;47573;43.832;5.974;2022-08-21T14:20:30;94730.34;;;29.98;44.18
61674;BME280;47573;43.832;5.974;2022-08-21T14:25:38;94731.38;;;30.02;44.59
61674;BME280;47573;43.832;5.974;2022-08-21T14:30:41;94725.72;;;30.12;44.47
61674;BME280;47573;43.832;5.974;2022-08-21T14:35:44;94725.72;;;30.12;44.69
61674;BME280;47573;43.832;5.974;2022-08-21T14:40:47;94726.13;;;30.06;44.98
61674;BME280;47573;43.832;5.974;2022-08-21T14:45:48;94713.66;;;30.08;45.14
61674;BME280;47573;43.832;5.974;2022-08-21T14:50:50;94714.09;;;30.15;44.99
61674;BME280;47573;43.832;5.974;2022-08-21T14:55:51;94712.84;;;30.08;45.35
61674;BME280;47573;43.832;5.974;2022-08-21T15:00:51;94708.56;;;30.15;45.22
61674;BME280;47573;43.832;5.974;2022-08-21T15:05:56;94695.31;;;30.17;45.27
61674;BME280;47573;43.832;5.974;2022-08-21T15:10:57;94695.75;;;30.25;45.37
61674;BME280;47573;43.832;5.974;2022-08-21T15:15:57;94699.81;;;30.13;45.75
61674;BME280;47573;43.832;5.974;2022-08-21T15:20:59;94702.44;;;30.37;45.45
61674;BME280;47573;43.832;5.974;2022-08-21T15:26:00;94699.03;;;30.27;44.26
61674;BME280;47573;43.832;5.974;2022-08-21T15:31:01;94697.94;;;30.55;42.93
61674;BME280;47573;43.832;5.974;2022-08-21T15:36:03;94701.72;;;30.59;42.54
61674;BME280;47573;43.832;5.974;2022-08-21T15:41:05;94701.84;;;30.81;41.52
61674;BME280;47573;43.832;5.974;2022-08-21T15:46:05;94703.44;;;30.82;41.29
61674;BME280;47573;43.832;5.974;2022-08-21T15:51:10;94706.41;;;30.45;41.98
61674;BME280;47573;43.832;5.974;2022-08-21T15:56:16;94703.06;;;30.48;41.94
61674;BME280;47573;43.832;5.974;2022-08-21T16:01:19;94694.16;;;30.51;41.65
61674;BME280;47573;43.832;5.974;2022-08-21T16:06:21;94700.91;;;30.45;41.44
61674;BME280;47573;43.832;5.974;2022-08-21T16:11:21;94697.84;;;30.33;42.14
61674;BME280;47573;43.832;5.974;2022-08-21T16:16:23;94700.47;;;30.38;41.67
61674;BME280;47573;43.832;5.974;2022-08-21T16:21:25;94707.63;;;30.39;41.54
61674;BME280;47573;43.832;5.974;2022-08-21T16:26:26;94693.44;;;30.32;41.63
61674;BME280;47573;43.832;5.974;2022-08-21T16:31:27;94690.31;;;30.52;41.30
61674;BME280;47573;43.832;5.974;2022-08-21T16:36:29;94702.13;;;30.39;41.33
61674;BME280;47573;43.832;5.974;2022-08-21T16:41:31;94693.66;;;30.49;41.40
61674;BME280;47573;43.832;5.974;2022-08-21T16:46:35;94694.75;;;30.34;41.91
61674;BME280;47573;43.832;5.974;2022-08-21T16:51:39;94683.34;;;30.41;41.71
61674;BME280;47573;43.832;5.974;2022-08-21T16:56:39;94685.41;;;30.35;42.23
61674;BME280;47573;43.832;5.974;2022-08-21T17:01:40;94678.59;;;30.28;42.24
61674;BME280;47573;43.832;5.974;2022-08-21T17:06:42;94672.53;;;30.31;42.45
61674;BME280;47573;43.832;5.974;2022-08-21T17:11:45;94683.25;;;30.32;42.15
61674;BME280;47573;43.832;5.974;2022-08-21T17:16:49;94682.56;;;30.22;42.36
61674;BME280;47573;43.832;5.974;2022-08-21T17:21:52;94671.72;;;30.30;42.52
61674;BME280;47573;43.832;5.974;2022-08-21T17:26:53;94681.03;;;30.15;41.56
61674;BME280;47573;43.832;5.974;2022-08-21T17:31:55;94674.94;;;30.18;41.52
61674;BME280;47573;43.832;5.974;2022-08-21T17:36:57;94670.66;;;30.12;41.20
61674;BME280;47573;43.832;5.974;2022-08-21T17:42:01;94668.56;;;30.04;41.38
61674;BME280;47573;43.832;5.974;2022-08-21T17:47:03;94669.50;;;30.00;42.24
61674;BME280;47573;43.832;5.974;2022-08-21T17:52:05;94677.53;;;29.96;41.18
61674;BME280;47573;43.832;5.974;2022-08-21T17:57:07;94678.44;;;29.92;41.25
61674;BME280;47573;43.832;5.974;2022-08-21T18:02:07;94684.34;;;29.85;41.34
61674;BME280;47573;43.832;5.974;2022-08-21T18:07:09;94675.06;;;29.81;42.03
61674;BME280;47573;43.832;5.974;2022-08-21T18:12:11;94678.94;;;29.80;41.52
61674;BME280;47573;43.832;5.974;2022-08-21T18:17:15;94686.19;;;29.71;41.32
61674;BME280;47573;43.832;5.974;2022-08-21T18:22:17;94689.34;;;29.46;41.15
61674;BME280;47573;43.832;5.974;2022-08-21T18:27:18;94694.59;;;29.48;41.10
61674;BME280;47573;43.832;5.974;2022-08-21T18:32:21;94691.91;;;29.42;41.38
61674;BME280;47573;43.832;5.974;2022-08-21T18:37:24;94691.03;;;29.05;43.03
61674;BME280;47573;43.832;5.974;2022-08-21T18:42:25;94702.13;;;29.00;42.61
61674;BME280;47573;43.832;5.974;2022-08-21T18:47:30;94701.97;;;28.91;43.06
61674;BME280;47573;43.832;5.974;2022-08-21T18:52:33;94708.34;;;28.63;44.35
61674;BME280;47573;43.832;5.974;2022-08-21T18:57:35;94728.81;;;28.76;43.42
61674;BME280;47573;43.832;5.974;2022-08-21T19:02:36;94722.59;;;28.89;42.82
61674;BME280;47573;43.832;5.974;2022-08-21T19:07:38;94730.09;;;28.83;43.63
61674;BME280;47573;43.832;5.974;2022-08-21T19:12:39;94731.75;;;28.60;44.65
61674;BME280;47573;43.832;5.974;2022-08-21T19:17:41;94733.78;;;28.74;44.56
61674;BME280;47573;43.832;5.974;2022-08-21T19:22:43;94733.13;;;28.82;44.42
61674;BME280;47573;43.832;5.974;2022-08-21T19:27:43;94726.50;;;28.64;44.75
61674;BME280;47573;43.832;5.974;2022-08-21T19:32:45;94745.03;;;28.48;44.96
61674;BME280;47573;43.832;5.974;2022-08-21T19:37:48;94743.84;;;28.59;45.12
61674;BME280;47573;43.832;5.974;2022-08-21T19:42:48;94728.53;;;28.48;44.48
61674;BME280;47573;43.832;5.974;2022-08-21T19:47:49;94732.19;;;28.44;44.96
61674;BME280;47573;43.832;5.974;2022-08-21T19:52:52;94739.59;;;28.43;45.21
61674;BME280;47573;43.832;5.974;2022-08-21T19:57:52;94744.56;;;28.41;45.34
61674;BME280;47573;43.832;5.974;2022-08-21T20:02:53;94748.63;;;28.20;45.48
61674;BME280;47573;43.832;5.974;2022-08-21T20:07:55;94757.28;;;28.32;44.70
61674;BME280;47573;43.832;5.974;2022-08-21T20:12:55;94756.22;;;28.28;44.63
61674;BME280;47573;43.832;5.974;2022-08-21T20:17:56;94760.63;;;28.29;44.58
61674;BME280;47573;43.832;5.974;2022-08-21T20:22:57;94750.06;;;28.41;44.14
61674;BME280;47573;43.832;5.974;2022-08-21T20:27:58;94762.22;;;28.35;44.46
61674;BME280;47573;43.832;5.974;2022-08-21T20:32:59;94748.63;;;28.20;44.60
61674;BME280;47573;43.832;5.974;2022-08-21T20:38:00;94750.34;;;28.11;44.87
61674;BME280;47573;43.832;5.974;2022-08-21T20:43:02;94747.56;;;28.16;44.49
61674;BME280;47573;43.832;5.974;2022-08-21T20:48:05;94750.34;;;28.11;45.09
61674;BME280;47573;43.832;5.974;2022-08-21T20:53:13;94757.97;;;27.85;45.51
61674;BME280;47573;43.832;5.974;2022-08-21T20:58:19;94763.19;;;27.87;45.94
61674;BME280;47573;43.832;5.974;2022-08-21T21:03:32;94768.78;;;27.72;46.14
61674;BME280;47573;43.832;5.974;2022-08-21T21:08:39;94769.03;;;27.75;45.74
61674;BME280;47573;43.832;5.974;2022-08-21T21:13:45;94770.34;;;27.83;45.45
61674;BME280;47573;43.832;5.974;2022-08-21T21:18:51;94762.00;;;27.64;45.92
61674;BME280;47573;43.832;5.974;2022-08-21T21:23:59;94762.28;;;27.63;45.50
61674;BME280;47573;43.832;5.974;2022-08-21T21:29:08;94758.31;;;27.79;44.99
61674;BME280;47573;43.832;5.974;2022-08-21T21:34:09;94759.53;;;27.63;45.50
61674;BME280;47573;43.832;5.974;2022-08-21T21:39:18;94758.66;;;28.06;45.70
61674;BME280;47573;43.832;5.974;2022-08-21T21:44:52;94762.97;;;28.41;45.40
61674;BME280;47573;43.832;5.974;2022-08-21T21:50:07;94758.19;;;28.56;45.17
61674;BME280;47573;43.832;5.974;2022-08-21T21:55:31;94761.44;;;28.58;45.48
61674;BME280;47573;43.832;5.974;2022-08-21T22:00:39;94760.38;;;28.54;45.76
61674;BME280;47573;43.832;5.974;2022-08-21T22:05:54;94767.75;;;28.59;45.63
61674;BME280;47573;43.832;5.974;2022-08-21T22:11:01;94758.69;;;28.58;45.61
61674;BME280;47573;43.832;5.974;2022-08-21T22:16:04;94771.84;;;28.61;45.94
61674;BME280;47573;43.832;5.974;2022-08-21T22:21:09;94768.09;;;28.76;45.79
61674;BME280;47573;43.832;5.974;2022-08-21T22:26:15;94775.00;;;28.74;45.81
61674;BME280;47573;43.832;5.974;2022-08-21T22:31:20;94766.69;;;28.79;45.79
61674;BME280;47573;43.832;5.974;2022-08-21T22:36:21;94765.66;;;28.75;45.96
61674;BME280;47573;43.832;5.974;2022-08-21T22:41:28;94759.94;;;28.71;46.24
61674;BME280;47573;43.832;5.974;2022-08-21T22:46:32;94749.09;;;28.80;46.01
61674;BME280;47573;43.832;5.974;2022-08-21T22:51:37;94759.34;;;28.74;46.14
61674;BME280;47573;43.832;5.974;2022-08-21T22:56:41;94755.09;;;28.82;45.73
61674;BME280;47573;43.832;5.974;2022-08-21T23:01:42;94751.09;;;28.74;46.20
61674;BME280;47573;43.832;5.974;2022-08-21T23:06:46;94757.94;;;28.77;46.03
61674;BME280;47573;43.832;5.974;2022-08-21T23:11:49;94756.19;;;28.86;45.70
61674;BME280;47573;43.832;5.974;2022-08-21T23:16:53;94758.41;;;28.84;45.65
61674;BME280;47573;43.832;5.974;2022-08-21T23:22:00;94756.75;;;28.83;45.37
61674;BME280;47573;43.832;5.974;2022-08-21T23:27:11;94753.50;;;28.81;45.72
61674;BME280;47573;43.832;5.974;2022-08-21T23:32:28;94757.34;;;28.80;45.85
61674;BME280;47573;43.832;5.974;2022-08-21T23:37:40;94753.97;;;28.88;46.24
61674;BME280;47573;43.832;5.974;2022-08-21T23:42:58;94751.97;;;29.17;45.88
61674;BME280;47573;43.832;5.974;2022-08-21T23:48:09;94747.00;;;29.19;46.04
61674;BME280;47573;43.832;5.974;2022-08-21T23:53:22;94739.78;;;29.23;45.97
61674;BME280;47573;43.832;5.974;2022-08-21T23:58:44;94744.09;;;29.29;46.00
